aviador You're here:

KGEV Decoded Metar

JEFFERSON in NC, USA
Report Time2017-10-21 15:50:00
UTC Time2017-10-21 15:56:40
Flight Rules vfr VFR
Wind130° at 03 kt
W.Decomp.*RWY 10: 2.4 kt HW 1.8 kt RCW
W.Rank130° ranks 12
Current wind is below 130° avg. (4.3)
Visibility9999 m
Phenomena:N/A
Clouds:N/A
Expected CloudBase > 4,000 ft AGL from Temp-Dew spread
CeilingNone
Temp18°C (ISA +9)
Dew Point08°C (52% RH)
AAT16.5°C
QNH1029 hPa
Density Alt3,885 ft
Elevation3,179 ft
Report Wrong Elevation
Raw Report
KGEV 211550Z AUTO 13003KT 10SM CLR 18/08 A3040 RMK AO2
T01780077=

Extra information for KGEV:More info

Metar Taf Metar & Taf Last 4 Metars F.Rules Stats Wind Profile Meteogram Temp Stats Airport Information Weather charts Add Link Nearby VenuesMetar ALERT Operation Metar Decoded Social comments

AIRNAV info for KGEV